createdAt,value
2023-04-12T00:01:26.222Z,88.60
2023-04-12T00:03:56.957Z,87.96
2023-04-12T00:06:32.487Z,87.88
2023-04-12T00:09:02.540Z,87.68
2023-04-12T00:11:33.208Z,86.18
2023-04-12T00:14:02.397Z,86.53
2023-04-12T00:16:31.159Z,86.51
2023-04-12T00:19:01.712Z,86.21
2023-04-12T00:21:30.690Z,85.73
2023-04-12T00:23:59.871Z,85.31
2023-04-12T00:26:29.011Z,84.34
2023-04-12T00:28:58.055Z,84.83
2023-04-12T00:31:27.047Z,85.91
2023-04-12T00:33:56.496Z,86.21
2023-04-12T00:36:27.404Z,86.17
2023-04-12T00:38:56.598Z,86.16
2023-04-12T00:41:25.416Z,86.66
2023-04-12T00:43:54.742Z,87.09
2023-04-12T00:46:23.932Z,87.52
2023-04-12T00:48:54.334Z,87.49
2023-04-12T00:51:27.321Z,88.27
2023-04-12T00:53:58.746Z,87.83
2023-04-12T00:56:28.592Z,87.95
2023-04-12T00:58:58.726Z,88.19
2023-04-12T01:01:28.310Z,88.72
2023-04-12T01:04:01.346Z,88.76
2023-04-12T01:06:55.792Z,88.99
2023-04-12T01:09:43.294Z,89.50
2023-04-12T01:12:29.419Z,89.24
2023-04-12T01:15:08.595Z,89.95
2023-04-12T01:17:48.782Z,89.80
2023-04-12T01:20:25.181Z,90.17
2023-04-12T01:23:35.175Z,89.98
2023-04-12T01:26:24.470Z,90.59
2023-04-12T01:28:56.546Z,90.57
2023-04-12T01:31:28.899Z,89.93
2023-04-12T01:34:00.638Z,90.22
2023-04-12T01:36:31.797Z,90.52
2023-04-12T01:39:06.089Z,89.99
2023-04-12T01:41:41.904Z,89.86
2023-04-12T01:44:15.338Z,89.57
2023-04-12T01:46:46.819Z,89.95
2023-04-12T01:49:16.724Z,89.79
2023-04-12T01:51:56.634Z,90.04
2023-04-12T01:54:30.541Z,90.20
2023-04-12T01:57:04.807Z,89.67
2023-04-12T01:59:41.914Z,89.36
2023-04-12T02:02:14.093Z,89.70
2023-04-12T02:04:44.062Z,89.32
2023-04-12T02:07:15.149Z,89.34
2023-04-12T02:09:43.834Z,89.28
2023-04-12T02:12:13.295Z,89.51
2023-04-12T02:14:43.489Z,88.93
2023-04-12T02:17:13.322Z,89.23
2023-04-12T02:19:42.856Z,89.54
2023-04-12T02:22:13.424Z,89.93
2023-04-12T02:24:42.153Z,89.87
2023-04-12T02:27:11.607Z,89.39
2023-04-12T02:29:41.377Z,89.71
2023-04-12T02:32:13.026Z,89.29
2023-04-12T02:34:42.200Z,89.58
2023-04-12T02:37:18.397Z,89.56
2023-04-12T02:39:47.087Z,89.20
2023-04-12T02:42:17.099Z,89.93
2023-04-12T02:44:48.738Z,89.58
2023-04-12T02:47:19.778Z,89.92
2023-04-12T02:49:50.934Z,89.55
2023-04-12T02:52:21.473Z,89.99
2023-04-12T02:55:04.209Z,90.02
2023-04-12T02:57:33.308Z,90.14
2023-04-12T03:00:06.078Z,89.87
2023-04-12T03:02:45.052Z,89.50
2023-04-12T03:05:21.358Z,90.08
2023-04-12T03:07:50.583Z,90.84
2023-04-12T03:10:23.620Z,90.75
2023-04-12T03:13:12.888Z,90.47
2023-04-12T03:15:49.600Z,90.16
2023-04-12T03:18:21.899Z,90.92
2023-04-12T03:20:53.511Z,90.93
2023-04-12T03:23:22.474Z,89.98
2023-04-12T03:26:05.011Z,90.22
2023-04-12T03:28:37.283Z,90.16
2023-04-12T03:31:08.861Z,90.17
2023-04-12T03:33:43.631Z,90.53
2023-04-12T03:36:22.401Z,90.28
2023-04-12T03:38:58.293Z,90.28
2023-04-12T03:41:27.477Z,89.88
2023-04-12T03:43:57.338Z,89.46
2023-04-12T03:46:26.469Z,89.54
2023-04-12T03:49:01.400Z,90.23
2023-04-12T03:51:31.096Z,90.44
2023-04-12T03:54:06.099Z,90.34
2023-04-12T03:56:46.042Z,90.47
2023-04-12T03:59:22.538Z,90.46
2023-04-12T04:01:52.408Z,90.12
2023-04-12T04:04:24.329Z,90.29
2023-04-12T04:06:57.727Z,90.58
2023-04-12T04:09:28.554Z,90.95
2023-04-12T04:11:57.413Z,90.43
2023-04-12T04:14:27.816Z,90.98
2023-04-12T04:16:56.991Z,91.11
2023-04-12T04:19:27.490Z,91.29
2023-04-12T04:21:56.331Z,90.17
2023-04-12T04:24:26.067Z,90.51
2023-04-12T04:26:58.820Z,91.50
2023-04-12T04:29:30.118Z,91.21
2023-04-12T04:31:59.799Z,90.36
2023-04-12T04:34:30.246Z,90.47
2023-04-12T04:37:09.759Z,90.26
2023-04-12T04:39:42.205Z,89.64
2023-04-12T04:42:12.099Z,89.72
2023-04-12T04:44:42.850Z,89.37
2023-04-12T04:47:12.908Z,89.57
2023-04-12T04:49:44.902Z,88.99
2023-04-12T04:52:23.800Z,89.23
2023-04-12T04:54:57.700Z,89.49
2023-04-12T04:57:28.791Z,89.37
2023-04-12T04:59:58.862Z,88.65
2023-04-12T05:02:28.511Z,88.19
2023-04-12T05:05:00.049Z,88.36
2023-04-12T05:07:30.468Z,88.15
2023-04-12T05:10:00.576Z,87.89
2023-04-12T05:12:31.389Z,87.68
2023-04-12T05:15:11.165Z,87.91
2023-04-12T05:17:42.061Z,87.36
2023-04-12T05:20:12.832Z,86.79
2023-04-12T05:22:41.633Z,87.79
2023-04-12T05:25:11.564Z,87.29
2023-04-12T05:27:50.477Z,86.82
2023-04-12T05:30:22.067Z,87.07
2023-04-12T05:32:51.873Z,86.93
2023-04-12T05:35:23.146Z,87.16
2023-04-12T05:37:56.572Z,87.01
2023-04-12T05:40:26.486Z,86.46
2023-04-12T05:42:56.309Z,86.34
2023-04-12T05:45:26.389Z,85.95
2023-04-12T05:47:55.716Z,86.46
2023-04-12T05:50:26.920Z,86.12
2023-04-12T05:52:56.852Z,85.91
2023-04-12T05:55:30.882Z,86.28
2023-04-12T05:57:59.708Z,86.19
2023-04-12T06:00:30.010Z,85.91
2023-04-12T06:02:59.460Z,85.25
2023-04-12T06:05:30.076Z,85.47
2023-04-12T06:07:59.992Z,84.45
2023-04-12T06:10:29.160Z,84.48
2023-04-12T06:12:57.964Z,84.48
2023-04-12T06:15:27.312Z,83.98
2023-04-12T06:17:56.700Z,83.81
2023-04-12T06:20:25.798Z,83.66
2023-04-12T06:22:56.510Z,82.81
2023-04-12T06:25:26.009Z,81.73
2023-04-12T06:27:56.327Z,81.15
2023-04-12T06:30:26.969Z,81.53
2023-04-12T06:32:56.890Z,81.55
2023-04-12T06:35:25.855Z,80.47
2023-04-12T06:37:56.333Z,81.11
2023-04-12T06:40:25.218Z,81.69
2023-04-12T06:42:54.642Z,81.71
2023-04-12T06:45:25.679Z,80.95
2023-04-12T06:47:57.014Z,79.80
2023-04-12T06:50:27.050Z,80.36
2023-04-12T06:52:57.445Z,80.84
2023-04-12T06:55:27.091Z,81.21
2023-04-12T06:57:56.502Z,80.22
2023-04-12T07:00:26.081Z,79.40
2023-04-12T07:02:55.251Z,79.56
2023-04-12T07:05:24.419Z,79.33
2023-04-12T07:07:53.401Z,79.39
2023-04-12T07:10:23.477Z,78.83
2023-04-12T07:12:52.860Z,79.50
2023-04-12T07:15:21.669Z,79.29
2023-04-12T07:17:51.887Z,79.23
2023-04-12T07:20:20.768Z,80.30
2023-04-12T07:22:49.801Z,80.28
2023-04-12T07:25:18.768Z,79.98
2023-04-12T07:27:51.282Z,79.52
2023-04-12T07:30:21.014Z,79.49
2023-04-12T07:32:50.615Z,78.90
2023-04-12T07:35:20.684Z,79.15
2023-04-12T07:37:49.798Z,79.13
2023-04-12T07:40:18.662Z,78.83
2023-04-12T07:42:49.031Z,79.12
2023-04-12T07:45:18.072Z,78.79
2023-04-12T07:47:47.841Z,78.42
2023-04-12T07:50:16.644Z,78.26
2023-04-12T07:52:45.697Z,78.30
2023-04-12T07:55:14.379Z,78.05
2023-04-12T07:57:43.304Z,77.74
2023-04-12T08:00:15.610Z,77.86
2023-04-12T08:02:44.842Z,78.81
2023-04-12T08:05:13.861Z,78.04
2023-04-12T08:07:42.916Z,78.28
2023-04-12T08:10:11.886Z,78.19
2023-04-12T08:12:41.333Z,77.46
2023-04-12T08:15:10.943Z,77.06
2023-04-12T08:17:43.966Z,77.23
2023-04-12T08:20:13.853Z,77.16
2023-04-12T08:22:42.962Z,77.10
2023-04-12T08:25:11.946Z,77.21
2023-04-12T08:27:43.415Z,76.90
2023-04-12T08:30:14.229Z,77.08
2023-04-12T08:32:44.938Z,77.30
2023-04-12T08:35:13.895Z,77.07
2023-04-12T08:37:43.026Z,77.03
2023-04-12T08:40:12.169Z,77.15
2023-04-12T08:42:41.453Z,76.38
2023-04-12T08:45:12.841Z,76.61
2023-04-12T08:47:45.631Z,75.46
2023-04-12T08:50:14.754Z,76.41
2023-04-12T08:52:44.958Z,76.12
2023-04-12T08:55:14.081Z,75.32
2023-04-12T08:57:44.457Z,74.50
2023-04-12T09:00:16.812Z,74.31
2023-04-12T09:02:49.080Z,73.83
2023-04-12T09:05:18.528Z,73.59
2023-04-12T09:07:47.598Z,73.14
2023-04-12T09:10:33.618Z,72.72
2023-04-12T09:13:04.009Z,72.36
2023-04-12T09:15:33.204Z,71.46
2023-04-12T09:18:09.055Z,69.35
2023-04-12T09:20:39.045Z,70.02
2023-04-12T09:23:22.056Z,69.36
2023-04-12T09:25:53.079Z,69.39
2023-04-12T09:28:25.985Z,69.80
2023-04-12T09:30:55.651Z,69.72
2023-04-12T09:33:36.515Z,68.64
2023-04-12T09:36:09.386Z,69.90
2023-04-12T09:38:39.527Z,70.01
2023-04-12T09:41:23.677Z,68.42
2023-04-12T09:43:56.212Z,68.42
2023-04-12T09:46:25.225Z,69.02
2023-04-12T09:48:58.961Z,68.68
2023-04-12T09:51:30.241Z,69.11
2023-04-12T09:54:01.695Z,69.04
2023-04-12T09:56:33.728Z,69.51
2023-04-12T09:59:05.310Z,69.10
2023-04-12T10:01:37.605Z,69.19
2023-04-12T10:04:10.636Z,69.05
2023-04-12T10:06:41.551Z,68.32
2023-04-12T10:09:11.965Z,68.62
2023-04-12T10:11:42.520Z,68.74
2023-04-12T10:14:14.419Z,68.50
2023-04-12T10:16:46.208Z,67.31
2023-04-12T10:19:18.189Z,66.41
2023-04-12T10:21:47.033Z,65.40
2023-04-12T10:24:17.470Z,63.11
2023-04-12T10:26:46.386Z,61.03
2023-04-12T10:29:30.299Z,58.08
2023-04-12T10:32:19.407Z,56.74
2023-04-12T10:34:56.526Z,56.43
2023-04-12T10:38:02.581Z,57.67
2023-04-12T10:40:33.868Z,58.15
2023-04-12T10:43:30.465Z,59.42
2023-04-12T10:46:04.394Z,59.89
2023-04-12T10:48:35.832Z,59.43
2023-04-12T10:51:23.529Z,59.79
2023-04-12T10:53:52.904Z,60.39
2023-04-12T10:56:41.821Z,60.59
2023-04-12T10:59:16.303Z,60.50
2023-04-12T11:02:11.732Z,62.26
2023-04-12T11:05:09.990Z,62.14
2023-04-12T11:07:55.387Z,62.05
2023-04-12T11:11:01.063Z,60.96
2023-04-12T11:13:37.449Z,59.89
2023-04-12T11:16:08.778Z,58.19
2023-04-12T11:18:37.919Z,55.47
2023-04-12T11:21:08.380Z,55.56
2023-04-12T11:23:43.359Z,56.21
2023-04-12T11:26:12.287Z,56.98
2023-04-12T11:28:41.309Z,58.10
2023-04-12T11:31:10.137Z,58.19
2023-04-12T11:33:41.520Z,57.86
2023-04-12T11:36:13.345Z,57.71
2023-04-12T11:38:46.304Z,57.76
2023-04-12T11:41:16.897Z,58.09
2023-04-12T11:43:47.312Z,57.54
2023-04-12T11:46:18.277Z,57.78
2023-04-12T11:48:47.743Z,57.76
2023-04-12T11:51:25.218Z,58.63
2023-04-12T11:53:57.208Z,58.53
2023-04-12T11:56:27.393Z,58.92
2023-04-12T11:58:56.580Z,59.33
2023-04-12T12:01:27.850Z,59.83
2023-04-12T12:03:58.225Z,59.63
2023-04-12T12:06:28.805Z,59.20
2023-04-12T12:09:00.286Z,59.63
2023-04-12T12:11:29.285Z,58.37
2023-04-12T12:14:00.563Z,57.48
2023-04-12T12:16:31.423Z,57.27
2023-04-12T12:19:05.344Z,58.10
2023-04-12T12:21:34.134Z,57.51
2023-04-12T12:24:04.624Z,57.47
2023-04-12T12:26:33.311Z,57.05
2023-04-12T12:29:02.708Z,57.14
2023-04-12T12:31:33.083Z,58.06
2023-04-12T12:34:04.253Z,57.07
2023-04-12T12:36:36.713Z,57.14
2023-04-12T12:39:10.530Z,57.64
2023-04-12T12:41:40.909Z,57.35
2023-04-12T12:44:11.261Z,57.60
2023-04-12T12:46:52.426Z,58.38
2023-04-12T12:49:22.852Z,56.09
2023-04-12T12:51:52.382Z,56.50
2023-04-12T12:54:39.488Z,55.68
2023-04-12T12:57:09.886Z,54.93
2023-04-12T12:59:38.954Z,56.35
2023-04-12T13:02:08.723Z,54.90
2023-04-12T13:04:38.423Z,56.01
2023-04-12T13:07:07.269Z,55.40
2023-04-12T13:09:37.765Z,56.26
2023-04-12T13:12:06.721Z,56.77
2023-04-12T13:14:35.701Z,57.31
2023-04-12T13:17:04.519Z,56.59
2023-04-12T13:19:33.561Z,56.26
2023-04-12T13:22:02.409Z,55.16
2023-04-12T13:24:31.485Z,55.31
2023-04-12T13:27:02.973Z,55.85
2023-04-12T13:29:32.289Z,54.71
2023-04-12T13:32:01.132Z,54.13
2023-04-12T13:34:30.563Z,54.49
2023-04-12T13:36:59.745Z,54.78
2023-04-12T13:39:29.313Z,54.60
2023-04-12T13:41:59.222Z,55.04
2023-04-12T13:44:29.820Z,54.21
2023-04-12T13:46:58.590Z,53.53
2023-04-12T13:49:27.531Z,53.89
2023-04-12T13:51:57.428Z,52.86
2023-04-12T13:54:26.490Z,52.41
2023-04-12T13:56:55.261Z,52.57
2023-04-12T13:59:24.635Z,53.63
2023-04-12T14:01:55.711Z,54.15
2023-04-12T14:04:25.017Z,54.81
2023-04-12T14:06:53.765Z,53.93
2023-04-12T14:09:25.954Z,55.00
2023-04-12T14:11:56.512Z,53.95
2023-04-12T14:14:27.572Z,54.17
2023-04-12T14:16:58.014Z,54.30
2023-04-12T14:19:27.147Z,54.33
2023-04-12T14:21:56.062Z,54.43
2023-04-12T14:24:25.221Z,53.77
2023-04-12T14:26:54.454Z,55.25
2023-04-12T14:29:23.527Z,54.17
2023-04-12T14:31:52.321Z,54.85
2023-04-12T14:34:22.713Z,54.54
2023-04-12T14:36:51.475Z,54.81
2023-04-12T14:39:20.483Z,54.87
2023-04-12T14:41:49.178Z,54.67
2023-04-12T14:44:20.179Z,54.75
2023-04-12T14:46:49.775Z,55.01
2023-04-12T14:49:18.891Z,55.15
2023-04-12T14:51:48.981Z,55.91
2023-04-12T14:54:18.062Z,55.52
2023-04-12T14:56:53.187Z,54.79
2023-04-12T14:59:24.176Z,55.59
2023-04-12T15:01:53.436Z,55.73
2023-04-12T15:04:22.766Z,56.42
2023-04-12T15:06:52.845Z,56.41
2023-04-12T15:09:21.877Z,56.52
2023-04-12T15:12:00.758Z,55.81
2023-04-12T15:14:30.256Z,56.10
2023-04-12T15:16:58.985Z,55.60
2023-04-12T15:19:28.028Z,55.32
2023-04-12T15:21:58.676Z,56.25
2023-04-12T15:24:27.768Z,55.88
2023-04-12T15:26:56.739Z,55.68
2023-04-12T15:29:27.863Z,55.19
2023-04-12T15:31:57.051Z,55.37
2023-04-12T15:34:28.440Z,55.76
2023-04-12T15:36:59.120Z,55.57
2023-04-12T15:39:28.327Z,55.77
2023-04-12T15:41:56.950Z,55.55
2023-04-12T15:44:31.611Z,55.75
2023-04-12T15:47:10.992Z,56.09
2023-04-12T15:49:41.436Z,56.86
2023-04-12T15:52:12.980Z,57.98
2023-04-12T15:54:43.856Z,57.75
2023-04-12T15:57:12.784Z,56.97
2023-04-12T15:59:43.090Z,57.17
2023-04-12T16:02:11.889Z,58.18
2023-04-12T16:04:43.863Z,58.44
2023-04-12T16:07:14.720Z,59.54
2023-04-12T16:09:44.144Z,59.76
2023-04-12T16:12:12.864Z,60.50
2023-04-12T16:14:43.620Z,60.75
2023-04-12T16:17:12.522Z,61.05
2023-04-12T16:19:41.894Z,60.44
2023-04-12T16:22:10.962Z,59.07
2023-04-12T16:24:41.370Z,59.67
2023-04-12T16:27:10.997Z,59.50
2023-04-12T16:29:40.358Z,59.17
2023-04-12T16:32:09.811Z,59.17
2023-04-12T16:34:41.305Z,59.42
2023-04-12T16:37:10.528Z,60.52
2023-04-12T16:39:40.933Z,60.45
2023-04-12T16:42:09.612Z,60.39
2023-04-12T16:44:38.747Z,61.35
2023-04-12T16:47:09.433Z,60.91
2023-04-12T16:49:38.521Z,60.92
2023-04-12T16:52:07.322Z,61.38
2023-04-12T16:54:36.303Z,61.80
2023-04-12T16:57:06.904Z,61.88
2023-04-12T16:59:35.875Z,62.01
2023-04-12T17:02:05.451Z,61.23
2023-04-12T17:04:34.675Z,62.53
2023-04-12T17:07:03.456Z,63.19
2023-04-12T17:09:32.475Z,63.42
2023-04-12T17:12:01.295Z,63.84
2023-04-12T17:14:32.406Z,64.51
2023-04-12T17:17:01.765Z,65.27
2023-04-12T17:19:32.209Z,65.73
2023-04-12T17:22:00.971Z,65.94
2023-04-12T17:24:30.057Z,66.13
2023-04-12T17:26:59.279Z,66.06
2023-04-12T17:29:29.168Z,66.34
2023-04-12T17:31:59.919Z,66.48
2023-04-12T17:34:28.921Z,67.20
2023-04-12T17:36:57.608Z,67.89
2023-04-12T17:39:26.753Z,68.36
2023-04-12T17:41:56.009Z,69.06
2023-04-12T17:44:25.057Z,69.21
2023-04-12T17:46:53.819Z,69.14
2023-04-12T17:49:25.297Z,69.86
2023-04-12T17:51:54.034Z,70.68
2023-04-12T17:54:23.140Z,70.64
2023-04-12T17:56:52.283Z,71.04
2023-04-12T17:59:22.146Z,71.23
2023-04-12T18:01:51.122Z,71.39
2023-04-12T18:04:20.375Z,70.97
2023-04-12T18:06:50.675Z,71.25
2023-04-12T18:09:19.996Z,71.21
2023-04-12T18:11:48.725Z,71.48
2023-04-12T18:14:17.730Z,71.43
2023-04-12T18:16:46.445Z,71.45
2023-04-12T18:19:19.156Z,71.23
2023-04-12T18:21:49.519Z,71.53
2023-04-12T18:24:19.960Z,71.61
2023-04-12T18:26:48.694Z,71.58
2023-04-12T18:29:18.531Z,71.96
2023-04-12T18:31:47.229Z,71.74
2023-04-12T18:34:18.967Z,72.38
2023-04-12T18:36:47.791Z,73.08
2023-04-12T18:39:17.411Z,73.06
2023-04-12T18:41:47.500Z,72.44
2023-04-12T18:44:19.256Z,72.45
2023-04-12T18:46:48.135Z,72.58
2023-04-12T18:49:17.304Z,72.65
2023-04-12T18:51:46.268Z,72.78
2023-04-12T18:54:17.503Z,73.04
2023-04-12T18:56:47.655Z,73.44
2023-04-12T18:59:17.814Z,73.85
2023-04-12T19:01:47.256Z,74.49
2023-04-12T19:04:16.813Z,74.77
2023-04-12T19:06:47.308Z,74.93
2023-04-12T19:09:16.450Z,74.87
2023-04-12T19:11:45.404Z,74.93
2023-04-12T19:14:16.188Z,75.30
2023-04-12T19:16:44.980Z,75.41
2023-04-12T19:19:14.017Z,75.21
2023-04-12T19:21:42.784Z,75.34
2023-04-12T19:24:12.413Z,75.50
2023-04-12T19:26:46.891Z,75.71
2023-04-12T19:29:18.811Z,76.26
2023-04-12T19:31:49.127Z,76.37
2023-04-12T19:34:18.407Z,76.48
2023-04-12T19:36:47.672Z,76.31
2023-04-12T19:39:18.559Z,76.99
2023-04-12T19:41:49.238Z,76.83
2023-04-12T19:44:19.783Z,77.33
2023-04-12T19:46:48.521Z,77.54
2023-04-12T19:49:17.625Z,77.29
2023-04-12T19:51:47.607Z,77.44
2023-04-12T19:54:18.700Z,77.46
2023-04-12T19:56:49.719Z,77.47
2023-04-12T19:59:21.098Z,77.75
2023-04-12T20:01:50.408Z,78.01
2023-04-12T20:04:22.282Z,78.17
2023-04-12T20:06:53.020Z,78.25
2023-04-12T20:09:23.831Z,78.54
2023-04-12T20:11:52.571Z,78.59
2023-04-12T20:14:24.408Z,78.69
2023-04-12T20:16:56.774Z,78.72
2023-04-12T20:19:28.579Z,78.82
2023-04-12T20:22:01.769Z,79.13
2023-04-12T20:24:34.381Z,79.53
2023-04-12T20:27:03.751Z,79.94
2023-04-12T20:29:36.169Z,79.82
2023-04-12T20:32:05.152Z,80.18
2023-04-12T20:34:34.297Z,80.18
2023-04-12T20:37:03.146Z,80.84
2023-04-12T20:39:32.292Z,80.90
2023-04-12T20:42:01.328Z,80.72
2023-04-12T20:44:30.350Z,81.17
2023-04-12T20:47:00.516Z,81.16
2023-04-12T20:49:31.081Z,81.21
2023-04-12T20:52:00.520Z,81.50
2023-04-12T20:54:31.583Z,81.44
2023-04-12T20:57:04.163Z,81.72
2023-04-12T20:59:33.927Z,82.05
2023-04-12T21:02:04.694Z,81.94
2023-04-12T21:04:36.291Z,82.41
2023-04-12T21:07:06.056Z,82.08
2023-04-12T21:09:35.350Z,82.01
2023-04-12T21:12:06.188Z,82.43
2023-04-12T21:14:37.576Z,82.13
2023-04-12T21:17:08.823Z,82.39
2023-04-12T21:19:41.026Z,82.64
2023-04-12T21:22:09.718Z,82.81
2023-04-12T21:24:39.164Z,82.75
2023-04-12T21:27:08.811Z,83.27
2023-04-12T21:29:41.376Z,83.53
2023-04-12T21:32:12.455Z,83.45
2023-04-12T21:34:41.392Z,83.73
2023-04-12T21:37:10.939Z,83.45
2023-04-12T21:39:40.156Z,82.81
2023-04-12T21:42:09.007Z,82.76
2023-04-12T21:44:39.634Z,82.99
2023-04-12T21:47:08.342Z,82.93
2023-04-12T21:49:38.667Z,82.79
2023-04-12T21:52:07.394Z,83.25
2023-04-12T21:54:37.083Z,83.28
2023-04-12T21:57:06.251Z,83.76
2023-04-12T21:59:35.369Z,83.94
2023-04-12T22:02:04.238Z,84.19
2023-04-12T22:04:34.420Z,84.20
2023-04-12T22:07:06.349Z,84.14
2023-04-12T23:51:34.234Z,86.60
2023-04-12T23:54:03.548Z,85.67
2023-04-12T23:56:32.270Z,85.81
2023-04-12T23:59:01.369Z,86.00
